sensor_id;sensor_type;location;lat;lon;timestamp;temperature;humidity
8253;DHT22;61313;48.396;10.008;2022-07-11T00:02:04;17.20;92.80
8253;DHT22;61313;48.396;10.008;2022-07-11T00:04:31;17.20;93.30
8253;DHT22;61313;48.396;10.008;2022-07-11T00:06:58;17.10;93.70
8253;DHT22;61313;48.396;10.008;2022-07-11T00:09:25;17.10;93.90
8253;DHT22;61313;48.396;10.008;2022-07-11T00:11:51;17.10;94.00
8253;DHT22;61313;48.396;10.008;2022-07-11T00:14:18;17.10;94.50
8253;DHT22;61313;48.396;10.008;2022-07-11T00:16:43;17.10;94.80
8253;DHT22;61313;48.396;10.008;2022-07-11T00:19:09;17.10;95.00
8253;DHT22;61313;48.396;10.008;2022-07-11T00:21:35;17.00;95.40
8253;DHT22;61313;48.396;10.008;2022-07-11T00:24:02;17.00;95.20
8253;DHT22;61313;48.396;10.008;2022-07-11T00:26:28;16.90;95.70
8253;DHT22;61313;48.396;10.008;2022-07-11T00:28:54;16.90;96.10
8253;DHT22;61313;48.396;10.008;2022-07-11T00:31:20;17.00;96.50
8253;DHT22;61313;48.396;10.008;2022-07-11T00:33:46;16.90;96.80
8253;DHT22;61313;48.396;10.008;2022-07-11T00:36:11;16.90;96.90
8253;DHT22;61313;48.396;10.008;2022-07-11T00:38:37;16.80;97.40
8253;DHT22;61313;48.396;10.008;2022-07-11T00:41:03;16.80;97.40
8253;DHT22;61313;48.396;10.008;2022-07-11T00:43:34;16.90;97.50
8253;DHT22;61313;48.396;10.008;2022-07-11T00:46:01;16.90;97.80
8253;DHT22;61313;48.396;10.008;2022-07-11T00:48:27;16.80;97.70
8253;DHT22;61313;48.396;10.008;2022-07-11T00:50:53;16.80;98.00
8253;DHT22;61313;48.396;10.008;2022-07-11T00:53:20;16.80;98.20
8253;DHT22;61313;48.396;10.008;2022-07-11T00:55:47;16.80;98.60
8253;DHT22;61313;48.396;10.008;2022-07-11T00:58:13;16.70;98.40
8253;DHT22;61313;48.396;10.008;2022-07-11T01:00:40;16.60;98.60
8253;DHT22;61313;48.396;10.008;2022-07-11T01:03:07;16.60;99.70
8253;DHT22;61313;48.396;10.008;2022-07-11T01:05:32;16.70;99.60
8253;DHT22;61313;48.396;10.008;2022-07-11T01:07:58;16.70;99.80
8253;DHT22;61313;48.396;10.008;2022-07-11T01:10:25;16.70;99.90
8253;DHT22;61313;48.396;10.008;2022-07-11T01:12:51;16.60;99.90
8253;DHT22;61313;48.396;10.008;2022-07-11T01:15:17;16.50;99.90
8253;DHT22;61313;48.396;10.008;2022-07-11T01:17:42;16.50;99.90
8253;DHT22;61313;48.396;10.008;2022-07-11T01:20:09;16.40;99.90
8253;DHT22;61313;48.396;10.008;2022-07-11T01:22:51;16.40;99.90
8253;DHT22;61313;48.396;10.008;2022-07-11T01:25:17;16.40;99.90
8253;DHT22;61313;48.396;10.008;2022-07-11T01:27:58;16.40;99.90
8253;DHT22;61313;48.396;10.008;2022-07-11T01:30:26;16.20;99.90
8253;DHT22;61313;48.396;10.008;2022-07-11T01:32:52;16.20;99.90
8253;DHT22;61313;48.396;10.008;2022-07-11T01:35:19;16.20;99.90
8253;DHT22;61313;48.396;10.008;2022-07-11T01:37:44;16.30;99.90
8253;DHT22;61313;48.396;10.008;2022-07-11T01:40:11;16.30;99.90
8253;DHT22;61313;48.396;10.008;2022-07-11T01:42:36;16.40;99.90
8253;DHT22;61313;48.396;10.008;2022-07-11T01:45:03;16.40;99.90
8253;DHT22;61313;48.396;10.008;2022-07-11T01:47:29;16.40;99.90
8253;DHT22;61313;48.396;10.008;2022-07-11T01:49:55;16.30;99.90
8253;DHT22;61313;48.396;10.008;2022-07-11T01:52:21;16.30;99.90
8253;DHT22;61313;48.396;10.008;2022-07-11T01:54:47;16.20;99.90
8253;DHT22;61313;48.396;10.008;2022-07-11T01:57:13;16.20;99.90
8253;DHT22;61313;48.396;10.008;2022-07-11T01:59:39;16.10;99.90
8253;DHT22;61313;48.396;10.008;2022-07-11T02:02:04;16.10;99.90
8253;DHT22;61313;48.396;10.008;2022-07-11T02:04:30;16.00;99.90
8253;DHT22;61313;48.396;10.008;2022-07-11T02:06:56;15.90;99.90
8253;DHT22;61313;48.396;10.008;2022-07-11T02:09:22;16.00;99.90
8253;DHT22;61313;48.396;10.008;2022-07-11T02:11:47;15.90;99.90
8253;DHT22;61313;48.396;10.008;2022-07-11T02:14:13;15.80;99.90
8253;DHT22;61313;48.396;10.008;2022-07-11T02:16:39;15.80;99.90
8253;DHT22;61313;48.396;10.008;2022-07-11T02:19:05;15.90;99.90
8253;DHT22;61313;48.396;10.008;2022-07-11T02:21:32;15.80;99.90
8253;DHT22;61313;48.396;10.008;2022-07-11T02:23:57;15.70;99.90
8253;DHT22;61313;48.396;10.008;2022-07-11T02:26:23;15.70;99.90
8253;DHT22;61313;48.396;10.008;2022-07-11T02:28:49;15.80;99.90
8253;DHT22;61313;48.396;10.008;2022-07-11T02:31:14;15.80;99.90
8253;DHT22;61313;48.396;10.008;2022-07-11T02:33:40;15.80;99.90
8253;DHT22;61313;48.396;10.008;2022-07-11T02:36:06;15.70;99.90
8253;DHT22;61313;48.396;10.008;2022-07-11T02:38:34;15.70;99.90
8253;DHT22;61313;48.396;10.008;2022-07-11T02:40:59;15.70;99.90
8253;DHT22;61313;48.396;10.008;2022-07-11T02:43:26;15.70;99.90
8253;DHT22;61313;48.396;10.008;2022-07-11T02:45:51;15.80;99.90
8253;DHT22;61313;48.396;10.008;2022-07-11T02:48:17;15.80;99.90
8253;DHT22;61313;48.396;10.008;2022-07-11T02:50:43;15.90;99.90
8253;DHT22;61313;48.396;10.008;2022-07-11T02:53:09;15.80;99.90
8253;DHT22;61313;48.396;10.008;2022-07-11T02:55:35;15.70;99.90
8253;DHT22;61313;48.396;10.008;2022-07-11T02:58:00;15.60;99.90
8253;DHT22;61313;48.396;10.008;2022-07-11T03:00:26;15.50;99.90
8253;DHT22;61313;48.396;10.008;2022-07-11T03:02:53;15.40;99.90
8253;DHT22;61313;48.396;10.008;2022-07-11T03:05:18;15.40;99.90
8253;DHT22;61313;48.396;10.008;2022-07-11T03:07:44;15.30;99.90
8253;DHT22;61313;48.396;10.008;2022-07-11T03:10:10;15.30;99.90
8253;DHT22;61313;48.396;10.008;2022-07-11T03:12:36;15.30;99.90
8253;DHT22;61313;48.396;10.008;2022-07-11T03:15:02;15.30;99.90
8253;DHT22;61313;48.396;10.008;2022-07-11T03:17:28;15.40;99.90
8253;DHT22;61313;48.396;10.008;2022-07-11T03:19:54;15.40;99.90
8253;DHT22;61313;48.396;10.008;2022-07-11T03:22:20;15.30;99.90
8253;DHT22;61313;48.396;10.008;2022-07-11T03:24:46;15.30;99.90
8253;DHT22;61313;48.396;10.008;2022-07-11T03:27:12;15.30;99.90
8253;DHT22;61313;48.396;10.008;2022-07-11T03:29:39;15.30;99.90
8253;DHT22;61313;48.396;10.008;2022-07-11T03:32:05;15.40;99.90
8253;DHT22;61313;48.396;10.008;2022-07-11T03:34:31;15.40;99.90
8253;DHT22;61313;48.396;10.008;2022-07-11T03:36:56;15.40;99.90
8253;DHT22;61313;48.396;10.008;2022-07-11T03:39:22;15.50;99.90
8253;DHT22;61313;48.396;10.008;2022-07-11T03:41:48;15.50;99.90
8253;DHT22;61313;48.396;10.008;2022-07-11T03:44:14;15.40;99.90
8253;DHT22;61313;48.396;10.008;2022-07-11T03:46:39;15.40;99.90
8253;DHT22;61313;48.396;10.008;2022-07-11T03:49:05;15.40;99.90
8253;DHT22;61313;48.396;10.008;2022-07-11T03:51:31;15.40;99.90
8253;DHT22;61313;48.396;10.008;2022-07-11T03:53:56;15.50;99.90
8253;DHT22;61313;48.396;10.008;2022-07-11T03:56:22;15.50;99.90
8253;DHT22;61313;48.396;10.008;2022-07-11T03:58:51;15.40;99.90
8253;DHT22;61313;48.396;10.008;2022-07-11T04:01:17;15.50;99.90
8253;DHT22;61313;48.396;10.008;2022-07-11T04:03:45;15.50;99.90
8253;DHT22;61313;48.396;10.008;2022-07-11T04:06:12;15.50;99.90
8253;DHT22;61313;48.396;10.008;2022-07-11T04:08:38;15.50;99.90
8253;DHT22;61313;48.396;10.008;2022-07-11T04:11:04;15.50;99.90
8253;DHT22;61313;48.396;10.008;2022-07-11T04:13:30;15.50;99.90
8253;DHT22;61313;48.396;10.008;2022-07-11T04:15:56;15.50;99.90
8253;DHT22;61313;48.396;10.008;2022-07-11T04:18:22;15.60;99.90
8253;DHT22;61313;48.396;10.008;2022-07-11T04:20:47;15.70;99.90
8253;DHT22;61313;48.396;10.008;2022-07-11T04:23:18;15.70;99.90
8253;DHT22;61313;48.396;10.008;2022-07-11T04:25:44;15.70;99.90
8253;DHT22;61313;48.396;10.008;2022-07-11T04:28:09;15.80;99.90
8253;DHT22;61313;48.396;10.008;2022-07-11T04:30:35;15.80;99.90
8253;DHT22;61313;48.396;10.008;2022-07-11T04:33:01;15.80;99.90
8253;DHT22;61313;48.396;10.008;2022-07-11T04:35:27;15.90;99.90
8253;DHT22;61313;48.396;10.008;2022-07-11T04:37:53;16.00;99.90
8253;DHT22;61313;48.396;10.008;2022-07-11T04:40:20;16.00;99.90
8253;DHT22;61313;48.396;10.008;2022-07-11T04:42:49;16.00;99.90
8253;DHT22;61313;48.396;10.008;2022-07-11T04:45:15;16.00;99.90
8253;DHT22;61313;48.396;10.008;2022-07-11T04:47:41;16.00;99.90
8253;DHT22;61313;48.396;10.008;2022-07-11T04:50:08;16.10;99.90
8253;DHT22;61313;48.396;10.008;2022-07-11T04:52:34;16.20;99.90
8253;DHT22;61313;48.396;10.008;2022-07-11T04:54:59;16.30;99.90
8253;DHT22;61313;48.396;10.008;2022-07-11T04:57:26;16.30;99.90
8253;DHT22;61313;48.396;10.008;2022-07-11T04:59:51;16.20;99.90
8253;DHT22;61313;48.396;10.008;2022-07-11T05:02:17;16.20;99.90
8253;DHT22;61313;48.396;10.008;2022-07-11T05:04:44;16.20;99.90
8253;DHT22;61313;48.396;10.008;2022-07-11T05:07:09;16.20;99.90
8253;DHT22;61313;48.396;10.008;2022-07-11T05:09:35;16.10;99.90
8253;DHT22;61313;48.396;10.008;2022-07-11T05:12:01;16.10;99.90
8253;DHT22;61313;48.396;10.008;2022-07-11T05:14:27;16.30;99.90
8253;DHT22;61313;48.396;10.008;2022-07-11T05:16:52;16.40;99.90
8253;DHT22;61313;48.396;10.008;2022-07-11T05:19:18;16.40;99.90
8253;DHT22;61313;48.396;10.008;2022-07-11T05:21:44;16.50;99.90
8253;DHT22;61313;48.396;10.008;2022-07-11T05:24:09;16.50;99.90
8253;DHT22;61313;48.396;10.008;2022-07-11T05:26:35;16.80;99.90
8253;DHT22;61313;48.396;10.008;2022-07-11T05:29:01;17.10;99.90
8253;DHT22;61313;48.396;10.008;2022-07-11T05:31:27;17.40;99.90
8253;DHT22;61313;48.396;10.008;2022-07-11T05:33:53;17.40;99.90
8253;DHT22;61313;48.396;10.008;2022-07-11T05:36:19;17.50;99.90
8253;DHT22;61313;48.396;10.008;2022-07-11T05:38:45;17.60;99.90
8253;DHT22;61313;48.396;10.008;2022-07-11T05:41:10;17.50;99.90
8253;DHT22;61313;48.396;10.008;2022-07-11T05:43:36;17.60;99.90
8253;DHT22;61313;48.396;10.008;2022-07-11T05:46:05;17.70;99.90
8253;DHT22;61313;48.396;10.008;2022-07-11T05:48:31;17.70;99.90
8253;DHT22;61313;48.396;10.008;2022-07-11T05:50:56;17.80;99.90
8253;DHT22;61313;48.396;10.008;2022-07-11T05:53:22;17.60;99.90
8253;DHT22;61313;48.396;10.008;2022-07-11T05:55:48;17.60;99.90
8253;DHT22;61313;48.396;10.008;2022-07-11T05:58:14;17.70;99.90
8253;DHT22;61313;48.396;10.008;2022-07-11T06:00:39;18.00;99.90
8253;DHT22;61313;48.396;10.008;2022-07-11T06:03:05;18.00;99.90
8253;DHT22;61313;48.396;10.008;2022-07-11T06:05:31;18.00;99.90
8253;DHT22;61313;48.396;10.008;2022-07-11T06:07:57;18.00;99.90
8253;DHT22;61313;48.396;10.008;2022-07-11T06:10:41;17.70;99.90
8253;DHT22;61313;48.396;10.008;2022-07-11T06:13:06;17.50;99.90
8253;DHT22;61313;48.396;10.008;2022-07-11T06:15:32;17.40;99.90
8253;DHT22;61313;48.396;10.008;2022-07-11T06:17:58;17.30;99.90
8253;DHT22;61313;48.396;10.008;2022-07-11T06:20:25;17.40;99.90
8253;DHT22;61313;48.396;10.008;2022-07-11T06:22:51;17.50;99.90
8253;DHT22;61313;48.396;10.008;2022-07-11T06:25:18;17.70;99.90
8253;DHT22;61313;48.396;10.008;2022-07-11T06:27:44;17.70;99.90
8253;DHT22;61313;48.396;10.008;2022-07-11T06:30:10;17.80;99.90
8253;DHT22;61313;48.396;10.008;2022-07-11T06:32:36;18.10;99.90
8253;DHT22;61313;48.396;10.008;2022-07-11T06:35:02;18.10;99.90
8253;DHT22;61313;48.396;10.008;2022-07-11T06:37:28;18.10;99.90
8253;DHT22;61313;48.396;10.008;2022-07-11T06:39:54;18.40;99.90
8253;DHT22;61313;48.396;10.008;2022-07-11T06:42:20;18.40;99.90
8253;DHT22;61313;48.396;10.008;2022-07-11T06:44:45;18.30;99.90
8253;DHT22;61313;48.396;10.008;2022-07-11T06:47:11;18.30;99.90
8253;DHT22;61313;48.396;10.008;2022-07-11T06:49:37;18.30;99.90
8253;DHT22;61313;48.396;10.008;2022-07-11T06:52:03;18.30;99.90
8253;DHT22;61313;48.396;10.008;2022-07-11T06:54:29;18.20;99.90
8253;DHT22;61313;48.396;10.008;2022-07-11T06:56:54;18.20;99.90
8253;DHT22;61313;48.396;10.008;2022-07-11T06:59:20;18.20;99.90
8253;DHT22;61313;48.396;10.008;2022-07-11T07:01:46;18.10;99.90
8253;DHT22;61313;48.396;10.008;2022-07-11T07:04:12;18.10;99.90
8253;DHT22;61313;48.396;10.008;2022-07-11T07:06:37;17.90;99.90
8253;DHT22;61313;48.396;10.008;2022-07-11T07:09:03;18.10;99.90
8253;DHT22;61313;48.396;10.008;2022-07-11T07:11:29;18.00;99.90
8253;DHT22;61313;48.396;10.008;2022-07-11T07:13:55;18.00;99.90
8253;DHT22;61313;48.396;10.008;2022-07-11T07:16:20;18.20;99.90
8253;DHT22;61313;48.396;10.008;2022-07-11T07:18:46;18.30;99.90
8253;DHT22;61313;48.396;10.008;2022-07-11T07:21:14;18.40;99.90
8253;DHT22;61313;48.396;10.008;2022-07-11T07:23:40;18.20;99.90
8253;DHT22;61313;48.396;10.008;2022-07-11T07:26:06;18.40;99.90
8253;DHT22;61313;48.396;10.008;2022-07-11T07:28:31;18.60;99.90
8253;DHT22;61313;48.396;10.008;2022-07-11T07:30:57;18.70;99.90
8253;DHT22;61313;48.396;10.008;2022-07-11T07:33:24;18.80;99.90
8253;DHT22;61313;48.396;10.008;2022-07-11T07:35:49;19.00;99.90
8253;DHT22;61313;48.396;10.008;2022-07-11T07:38:15;19.20;99.90
8253;DHT22;61313;48.396;10.008;2022-07-11T07:40:41;19.30;99.90
8253;DHT22;61313;48.396;10.008;2022-07-11T07:43:06;19.40;99.90
8253;DHT22;61313;48.396;10.008;2022-07-11T07:45:32;19.30;99.90
8253;DHT22;61313;48.396;10.008;2022-07-11T07:47:58;18.90;99.90
8253;DHT22;61313;48.396;10.008;2022-07-11T07:50:24;19.20;99.90
8253;DHT22;61313;48.396;10.008;2022-07-11T07:52:50;19.50;99.90
8253;DHT22;61313;48.396;10.008;2022-07-11T07:55:16;19.40;99.90
8253;DHT22;61313;48.396;10.008;2022-07-11T07:57:42;19.60;99.90
8253;DHT22;61313;48.396;10.008;2022-07-11T08:00:08;19.70;99.90
8253;DHT22;61313;48.396;10.008;2022-07-11T08:02:52;19.90;99.90
8253;DHT22;61313;48.396;10.008;2022-07-11T08:05:18;20.20;99.90
8253;DHT22;61313;48.396;10.008;2022-07-11T08:07:44;20.30;99.90
8253;DHT22;61313;48.396;10.008;2022-07-11T08:10:11;20.50;99.90
8253;DHT22;61313;48.396;10.008;2022-07-11T08:12:37;20.80;99.90
8253;DHT22;61313;48.396;10.008;2022-07-11T08:15:03;21.10;99.90
8253;DHT22;61313;48.396;10.008;2022-07-11T08:17:28;21.40;99.90
8253;DHT22;61313;48.396;10.008;2022-07-11T08:19:55;21.50;99.90
8253;DHT22;61313;48.396;10.008;2022-07-11T08:22:20;21.40;99.90
8253;DHT22;61313;48.396;10.008;2022-07-11T08:24:46;21.20;99.90
8253;DHT22;61313;48.396;10.008;2022-07-11T08:27:12;21.50;99.90
8253;DHT22;61313;48.396;10.008;2022-07-11T08:29:37;21.80;99.90
8253;DHT22;61313;48.396;10.008;2022-07-11T08:32:03;22.00;99.90
8253;DHT22;61313;48.396;10.008;2022-07-11T08:34:29;21.70;99.90
8253;DHT22;61313;48.396;10.008;2022-07-11T08:36:55;21.80;99.90
8253;DHT22;61313;48.396;10.008;2022-07-11T08:39:21;21.50;99.90
8253;DHT22;61313;48.396;10.008;2022-07-11T08:41:46;21.20;99.90
8253;DHT22;61313;48.396;10.008;2022-07-11T08:44:12;21.10;99.90
8253;DHT22;61313;48.396;10.008;2022-07-11T08:46:41;21.40;99.90
8253;DHT22;61313;48.396;10.008;2022-07-11T08:49:08;21.30;99.90
8253;DHT22;61313;48.396;10.008;2022-07-11T08:51:37;20.80;99.90
8253;DHT22;61313;48.396;10.008;2022-07-11T08:54:03;20.90;99.90
8253;DHT22;61313;48.396;10.008;2022-07-11T08:56:30;20.90;99.90
8253;DHT22;61313;48.396;10.008;2022-07-11T08:58:59;20.60;99.90
8253;DHT22;61313;48.396;10.008;2022-07-11T09:01:29;20.90;99.90
8253;DHT22;61313;48.396;10.008;2022-07-11T09:03:56;21.20;99.90
8253;DHT22;61313;48.396;10.008;2022-07-11T09:06:21;21.10;99.90
8253;DHT22;61313;48.396;10.008;2022-07-11T09:08:47;21.00;99.90
8253;DHT22;61313;48.396;10.008;2022-07-11T09:11:13;20.90;99.90
8253;DHT22;61313;48.396;10.008;2022-07-11T09:13:38;21.00;99.90
8253;DHT22;61313;48.396;10.008;2022-07-11T09:16:06;20.70;99.90
8253;DHT22;61313;48.396;10.008;2022-07-11T09:18:40;20.60;99.90
8253;DHT22;61313;48.396;10.008;2022-07-11T09:23:53;20.10;99.90
8253;DHT22;61313;48.396;10.008;2022-07-11T09:26:40;20.00;99.90
8253;DHT22;61313;48.396;10.008;2022-07-11T09:29:14;20.20;99.90
8253;DHT22;61313;48.396;10.008;2022-07-11T09:31:41;20.30;99.90
8253;DHT22;61313;48.396;10.008;2022-07-11T09:34:16;20.50;99.90
8253;DHT22;61313;48.396;10.008;2022-07-11T09:36:55;20.60;99.90
8253;DHT22;61313;48.396;10.008;2022-07-11T09:39:26;20.80;99.90
8253;DHT22;61313;48.396;10.008;2022-07-11T09:41:52;20.90;99.90
8253;DHT22;61313;48.396;10.008;2022-07-11T09:44:23;21.00;99.90
8253;DHT22;61313;48.396;10.008;2022-07-11T09:46:52;21.20;99.90
8253;DHT22;61313;48.396;10.008;2022-07-11T09:49:35;21.60;99.90
8253;DHT22;61313;48.396;10.008;2022-07-11T09:52:16;21.60;99.90
8253;DHT22;61313;48.396;10.008;2022-07-11T09:57:18;21.90;99.90
8253;DHT22;61313;48.396;10.008;2022-07-11T09:59:45;22.30;99.90
8253;DHT22;61313;48.396;10.008;2022-07-11T10:02:20;22.50;99.90
8253;DHT22;61313;48.396;10.008;2022-07-11T10:04:46;22.70;99.90
8253;DHT22;61313;48.396;10.008;2022-07-11T10:07:13;22.90;99.90
8253;DHT22;61313;48.396;10.008;2022-07-11T10:09:38;22.90;99.90
8253;DHT22;61313;48.396;10.008;2022-07-11T10:12:04;23.10;99.90
8253;DHT22;61313;48.396;10.008;2022-07-11T10:14:30;23.10;99.10
8253;DHT22;61313;48.396;10.008;2022-07-11T10:17:05;23.10;98.10
8253;DHT22;61313;48.396;10.008;2022-07-11T10:22:16;23.50;95.90
8253;DHT22;61313;48.396;10.008;2022-07-11T10:24:55;23.30;95.40
8253;DHT22;61313;48.396;10.008;2022-07-11T10:30:09;23.10;92.30
8253;DHT22;61313;48.396;10.008;2022-07-11T10:32:57;23.00;90.60
8253;DHT22;61313;48.396;10.008;2022-07-11T10:35:23;23.10;90.20
8253;DHT22;61313;48.396;10.008;2022-07-11T10:37:51;23.20;90.40
8253;DHT22;61313;48.396;10.008;2022-07-11T10:40:56;23.20;90.90
8253;DHT22;61313;48.396;10.008;2022-07-11T10:48:29;23.10;84.40
8253;DHT22;61313;48.396;10.008;2022-07-11T10:51:16;22.40;80.60
8253;DHT22;61313;48.396;10.008;2022-07-11T10:53:48;22.10;79.70
8253;DHT22;61313;48.396;10.008;2022-07-11T11:02:11;22.70;82.30
8253;DHT22;61313;48.396;10.008;2022-07-11T11:04:45;22.80;79.60
8253;DHT22;61313;48.396;10.008;2022-07-11T11:07:38;22.80;81.60
8253;DHT22;61313;48.396;10.008;2022-07-11T11:26:18;21.80;77.00
8253;DHT22;61313;48.396;10.008;2022-07-11T11:29:05;21.60;78.80
8253;DHT22;61313;48.396;10.008;2022-07-11T11:31:32;21.80;80.60
8253;DHT22;61313;48.396;10.008;2022-07-11T11:34:02;21.80;80.90
8253;DHT22;61313;48.396;10.008;2022-07-11T11:36:28;22.00;82.30
8253;DHT22;61313;48.396;10.008;2022-07-11T11:38:55;22.10;82.10
8253;DHT22;61313;48.396;10.008;2022-07-11T11:41:30;22.30;84.00
8253;DHT22;61313;48.396;10.008;2022-07-11T11:44:01;22.60;84.60
8253;DHT22;61313;48.396;10.008;2022-07-11T11:46:28;22.70;84.50
8253;DHT22;61313;48.396;10.008;2022-07-11T11:48:58;22.80;84.80
8253;DHT22;61313;48.396;10.008;2022-07-11T11:51:26;22.60;82.00
8253;DHT22;61313;48.396;10.008;2022-07-11T11:53:54;22.60;82.00
8253;DHT22;61313;48.396;10.008;2022-07-11T11:56:28;22.80;83.20
8253;DHT22;61313;48.396;10.008;2022-07-11T11:59:04;23.00;83.90
8253;DHT22;61313;48.396;10.008;2022-07-11T12:01:31;22.90;83.40
8253;DHT22;61313;48.396;10.008;2022-07-11T12:04:03;23.00;83.20
8253;DHT22;61313;48.396;10.008;2022-07-11T12:06:33;22.90;83.90
8253;DHT22;61313;48.396;10.008;2022-07-11T12:11:36;22.70;83.40
8253;DHT22;61313;48.396;10.008;2022-07-11T12:14:09;22.50;83.90
8253;DHT22;61313;48.396;10.008;2022-07-11T12:16:45;22.50;85.50
8253;DHT22;61313;48.396;10.008;2022-07-11T12:21:42;22.40;87.20
8253;DHT22;61313;48.396;10.008;2022-07-11T12:24:11;22.60;86.80
8253;DHT22;61313;48.396;10.008;2022-07-11T12:26:39;22.70;88.50
8253;DHT22;61313;48.396;10.008;2022-07-11T12:31:45;22.70;86.20
8253;DHT22;61313;48.396;10.008;2022-07-11T12:34:13;22.70;86.40
8253;DHT22;61313;48.396;10.008;2022-07-11T12:36:39;22.90;87.30
8253;DHT22;61313;48.396;10.008;2022-07-11T12:39:05;22.70;85.70
8253;DHT22;61313;48.396;10.008;2022-07-11T12:41:32;22.30;85.50
8253;DHT22;61313;48.396;10.008;2022-07-11T12:43:58;22.20;84.50
8253;DHT22;61313;48.396;10.008;2022-07-11T12:46:42;21.80;83.70
8253;DHT22;61313;48.396;10.008;2022-07-11T12:49:10;21.80;85.40
8253;DHT22;61313;48.396;10.008;2022-07-11T12:51:38;22.00;88.10
8253;DHT22;61313;48.396;10.008;2022-07-11T12:54:14;22.20;88.50
8253;DHT22;61313;48.396;10.008;2022-07-11T12:56:53;22.50;90.30
8253;DHT22;61313;48.396;10.008;2022-07-11T12:59:21;22.60;90.10
8253;DHT22;61313;48.396;10.008;2022-07-11T13:02:20;22.50;87.50
8253;DHT22;61313;48.396;10.008;2022-07-11T13:04:52;22.40;88.50
8253;DHT22;61313;48.396;10.008;2022-07-11T13:07:31;22.60;88.20
8253;DHT22;61313;48.396;10.008;2022-07-11T13:10:21;22.80;88.20
8253;DHT22;61313;48.396;10.008;2022-07-11T13:12:49;22.30;86.70
8253;DHT22;61313;48.396;10.008;2022-07-11T13:15:15;22.40;87.90
8253;DHT22;61313;48.396;10.008;2022-07-11T13:17:50;22.50;88.20
8253;DHT22;61313;48.396;10.008;2022-07-11T13:20:22;22.50;88.90
8253;DHT22;61313;48.396;10.008;2022-07-11T13:22:49;22.60;90.50
8253;DHT22;61313;48.396;10.008;2022-07-11T13:25:17;22.30;88.80
8253;DHT22;61313;48.396;10.008;2022-07-11T13:27:45;22.30;89.80
8253;DHT22;61313;48.396;10.008;2022-07-11T13:30:13;22.20;91.00
8253;DHT22;61313;48.396;10.008;2022-07-11T13:32:49;22.30;90.90
8253;DHT22;61313;48.396;10.008;2022-07-11T13:35:15;22.50;91.00
8253;DHT22;61313;48.396;10.008;2022-07-11T13:37:41;22.60;91.30
8253;DHT22;61313;48.396;10.008;2022-07-11T13:40:09;22.80;91.40
8253;DHT22;61313;48.396;10.008;2022-07-11T13:42:36;22.80;91.40
8253;DHT22;61313;48.396;10.008;2022-07-11T13:45:04;22.70;90.90
8253;DHT22;61313;48.396;10.008;2022-07-11T13:47:30;22.50;90.80
8253;DHT22;61313;48.396;10.008;2022-07-11T13:49:58;22.60;91.40
8253;DHT22;61313;48.396;10.008;2022-07-11T13:52:24;22.80;91.60
8253;DHT22;61313;48.396;10.008;2022-07-11T13:54:49;22.60;90.80
8253;DHT22;61313;48.396;10.008;2022-07-11T13:57:15;22.20;90.10
8253;DHT22;61313;48.396;10.008;2022-07-11T13:59:41;22.10;90.50
8253;DHT22;61313;48.396;10.008;2022-07-11T14:02:07;22.20;91.30
8253;DHT22;61313;48.396;10.008;2022-07-11T14:04:33;22.20;91.80
8253;DHT22;61313;48.396;10.008;2022-07-11T14:06:59;22.30;92.20
8253;DHT22;61313;48.396;10.008;2022-07-11T14:09:25;22.30;92.60
8253;DHT22;61313;48.396;10.008;2022-07-11T14:11:51;22.40;92.50
8253;DHT22;61313;48.396;10.008;2022-07-11T14:14:20;22.40;92.40
8253;DHT22;61313;48.396;10.008;2022-07-11T14:16:46;22.60;92.70
8253;DHT22;61313;48.396;10.008;2022-07-11T14:19:12;22.70;93.20
8253;DHT22;61313;48.396;10.008;2022-07-11T14:21:38;22.50;92.90
8253;DHT22;61313;48.396;10.008;2022-07-11T14:24:06;22.30;93.00
8253;DHT22;61313;48.396;10.008;2022-07-11T14:26:33;22.50;94.00
8253;DHT22;61313;48.396;10.008;2022-07-11T14:29:00;22.50;93.40
8253;DHT22;61313;48.396;10.008;2022-07-11T14:31:27;22.20;93.10
8253;DHT22;61313;48.396;10.008;2022-07-11T14:33:53;22.00;93.90
8253;DHT22;61313;48.396;10.008;2022-07-11T14:36:20;22.20;94.40
8253;DHT22;61313;48.396;10.008;2022-07-11T14:38:46;22.40;95.30
8253;DHT22;61313;48.396;10.008;2022-07-11T14:41:13;22.50;95.10
8253;DHT22;61313;48.396;10.008;2022-07-11T14:43:39;22.40;95.20
8253;DHT22;61313;48.396;10.008;2022-07-11T14:46:05;22.40;95.50
8253;DHT22;61313;48.396;10.008;2022-07-11T14:48:32;22.50;95.80
8253;DHT22;61313;48.396;10.008;2022-07-11T14:50:58;22.50;95.60
8253;DHT22;61313;48.396;10.008;2022-07-11T14:53:24;22.50;96.00
8253;DHT22;61313;48.396;10.008;2022-07-11T14:55:51;22.30;96.00
8253;DHT22;61313;48.396;10.008;2022-07-11T14:58:17;22.30;95.90
8253;DHT22;61313;48.396;10.008;2022-07-11T15:00:43;22.10;96.40
8253;DHT22;61313;48.396;10.008;2022-07-11T15:03:11;22.30;96.90
8253;DHT22;61313;48.396;10.008;2022-07-11T15:06:14;22.30;97.10
8253;DHT22;61313;48.396;10.008;2022-07-11T15:08:40;22.40;97.30
8253;DHT22;61313;48.396;10.008;2022-07-11T15:11:25;22.40;97.50
8253;DHT22;61313;48.396;10.008;2022-07-11T15:14:29;22.40;97.80
8253;DHT22;61313;48.396;10.008;2022-07-11T15:16:55;22.30;97.50
8253;DHT22;61313;48.396;10.008;2022-07-11T15:19:20;22.30;97.60
8253;DHT22;61313;48.396;10.008;2022-07-11T15:21:47;22.20;97.90
8253;DHT22;61313;48.396;10.008;2022-07-11T15:24:13;22.40;98.30
8253;DHT22;61313;48.396;10.008;2022-07-11T15:26:38;22.20;98.10
8253;DHT22;61313;48.396;10.008;2022-07-11T15:29:04;22.20;98.70
8253;DHT22;61313;48.396;10.008;2022-07-11T15:31:30;22.30;99.40
8253;DHT22;61313;48.396;10.008;2022-07-11T15:33:55;22.40;99.00
8253;DHT22;61313;48.396;10.008;2022-07-11T15:36:21;22.60;99.10
8253;DHT22;61313;48.396;10.008;2022-07-11T15:38:47;22.60;99.30
8253;DHT22;61313;48.396;10.008;2022-07-11T15:41:14;22.70;99.60
8253;DHT22;61313;48.396;10.008;2022-07-11T15:43:40;22.70;99.20
8253;DHT22;61313;48.396;10.008;2022-07-11T15:46:06;22.80;99.00
8253;DHT22;61313;48.396;10.008;2022-07-11T15:48:32;22.70;98.90
8253;DHT22;61313;48.396;10.008;2022-07-11T15:50:58;22.70;99.20
8253;DHT22;61313;48.396;10.008;2022-07-11T15:53:25;22.80;99.20
8253;DHT22;61313;48.396;10.008;2022-07-11T15:55:51;22.60;98.70
8253;DHT22;61313;48.396;10.008;2022-07-11T15:58:16;22.50;99.40
8253;DHT22;61313;48.396;10.008;2022-07-11T16:00:42;22.60;99.20
8253;DHT22;61313;48.396;10.008;2022-07-11T16:03:09;22.70;99.10
8253;DHT22;61313;48.396;10.008;2022-07-11T16:05:35;22.70;98.80
8253;DHT22;61313;48.396;10.008;2022-07-11T16:08:02;22.70;98.70
8253;DHT22;61313;48.396;10.008;2022-07-11T16:10:27;22.70;98.90
8253;DHT22;61313;48.396;10.008;2022-07-11T16:12:53;22.70;99.20
8253;DHT22;61313;48.396;10.008;2022-07-11T16:15:19;22.70;98.70
8253;DHT22;61313;48.396;10.008;2022-07-11T16:17:45;22.50;98.40
8253;DHT22;61313;48.396;10.008;2022-07-11T16:20:11;22.40;98.80